Terminal Aerodrome Forecast
Issued by NWS

Home | Current Version | Previous Version | Graphics & Text | Print | Product List | Glossary On
Versions: 1 2 3 4 5 6 7 8 9 10 11 12 13 14 15 16 17 18 19
000
FTUS43 KPAH 271457 AAA
TAFCGI
TAF AMD
KCGI 271457Z 2715/2812 36010KT P6SM VCSH SCT040 BKN080
     FM271700 35012KT P6SM SCT050 OVC150
     FM280200 VRB03KT P6SM SCT250
     FM281000 VRB03KT P6SM SCT100 OVC250=

USA.gov is the U.S. government's official web portal to all federal, state and local government web resources and services.